Time;durP1;ratioP1;P1;durP2;ratioP2;P2;SDS_P1;SDS_P2;PMS_P1;PMS_P2;Temp;Humidity;BMP_temperature;BMP_pressure;BME280_temperature;BME280_humidity;BME280_pressure;Samples;Min_cycle;Max_cycle;Signal;HPM_P1;HPM_P2
2022/08/19 00:00:27;;;;;;;10.23;6.38;;;15.30;99.90;;;;;;5050244;28;20049;-74
2022/08/19 00:02:53;;;;;;;12.63;6.82;;;15.30;99.90;;;;;;5050733;28;20158;-76
2022/08/19 00:05:21;;;;;;;10.15;6.50;;;15.30;99.90;;;;;;5050596;28;20381;-76
2022/08/19 00:07:48;;;;;;;9.50;6.15;;;15.30;99.90;;;;;;5061140;28;20479;-76
2022/08/19 00:10:15;;;;;;;7.25;5.80;;;15.30;99.90;;;;;;5063233;28;20054;-76
2022/08/19 00:12:42;;;;;;;8.38;5.30;;;15.20;99.90;;;;;;5078241;28;20044;-75
2022/08/19 00:15:12;;;;;;;9.15;5.07;;;15.40;99.90;;;;;;5070445;28;20052;-75
2022/08/19 00:17:40;;;;;;;8.55;5.63;;;15.20;99.90;;;;;;5068300;28;20496;-75
2022/08/19 00:20:07;;;;;;;7.93;5.38;;;15.20;99.90;;;;;;5069964;28;20090;-76
2022/08/19 00:22:33;;;;;;;7.45;5.80;;;15.20;99.90;;;;;;5069970;28;20079;-76
2022/08/19 00:24:59;;;;;;;8.48;5.38;;;15.10;99.90;;;;;;5070378;28;20044;-76
2022/08/19 00:27:24;;;;;;;9.50;5.00;;;15.20;99.90;;;;;;5050610;28;20048;-74
2022/08/19 00:29:50;;;;;;;7.60;4.65;;;15.00;99.90;;;;;;5051809;28;20502;-76
2022/08/19 00:32:16;;;;;;;7.60;4.47;;;15.00;99.90;;;;;;5051470;28;20047;-75
2022/08/19 00:34:43;;;;;;;5.85;4.30;;;14.90;99.90;;;;;;5069989;28;20127;-76
2022/08/19 00:37:09;;;;;;;8.55;4.20;;;14.80;99.90;;;;;;5069112;28;20149;-76
2022/08/19 00:39:35;;;;;;;6.57;4.13;;;14.80;99.90;;;;;;5067730;28;20044;-74
2022/08/19 00:42:01;;;;;;;7.35;4.43;;;14.80;99.90;;;;;;5069812;28;20549;-75
2022/08/19 00:44:28;;;;;;;7.88;4.30;;;14.70;99.90;;;;;;5051791;28;20047;-73
2022/08/19 00:46:58;;;;;;;6.13;3.75;;;14.60;99.90;;;;;;5069689;28;20051;-74
2022/08/19 00:49:53;;;;;;;7.38;3.97;;;14.90;99.90;;;;;;5067950;28;20512;-74
2022/08/19 00:52:23;;;;;;;5.28;3.53;;;14.60;99.90;;;;;;5067838;28;20136;-75
2022/08/19 00:54:51;;;;;;;3.08;2.00;;;14.50;99.90;;;;;;5069833;28;20834;-74
2022/08/19 00:57:20;;;;;;;3.63;2.13;;;14.50;99.90;;;;;;5069559;28;20044;-74
2022/08/19 00:59:52;;;;;;;3.97;1.80;;;14.60;99.90;;;;;;5067796;28;20044;-74
2022/08/19 01:02:18;;;;;;;4.47;2.88;;;14.40;99.90;;;;;;5069676;28;20063;-74
2022/08/19 01:04:44;;;;;;;3.60;2.70;;;14.40;99.90;;;;;;5069801;28;20810;-75
2022/08/19 01:07:09;;;;;;;4.30;2.85;;;14.40;99.90;;;;;;5069626;28;20052;-73
2022/08/19 01:09:35;;;;;;;6.05;3.78;;;14.30;99.90;;;;;;5069414;28;20048;-73
2022/08/19 01:12:02;;;;;;;7.82;3.42;;;14.30;99.90;;;;;;5068400;28;20056;-75
2022/08/19 01:14:28;;;;;;;5.60;4.55;;;14.30;99.90;;;;;;5069739;28;20037;-74
2022/08/19 01:16:56;;;;;;;4.10;3.05;;;14.30;99.90;;;;;;5069787;28;20087;-71
2022/08/19 01:19:33;;;;;;;4.55;2.55;;;14.30;99.90;;;;;;5069492;28;20048;-75
2022/08/19 01:22:05;;;;;;;5.18;3.22;;;14.30;99.90;;;;;;5077710;28;20546;-76
2022/08/19 01:24:31;;;;;;;5.47;4.07;;;14.20;99.90;;;;;;5069485;28;20047;-75
2022/08/19 01:26:58;;;;;;;4.70;3.40;;;14.20;99.90;;;;;;5049718;28;20037;-75
2022/08/19 01:29:23;;;;;;;3.75;2.53;;;14.10;99.90;;;;;;5033025;28;20052;-75
2022/08/19 01:31:51;;;;;;;3.00;2.40;;;14.10;99.90;;;;;;5031831;28;20492;-74
2022/08/19 01:34:18;;;;;;;4.20;2.22;;;14.10;99.90;;;;;;5031626;28;20059;-74
2022/08/19 01:36:47;;;;;;;4.72;2.80;;;14.00;99.90;;;;;;5049393;28;20518;-74
2022/08/19 01:39:16;;;;;;;5.07;2.58;;;14.10;99.90;;;;;;5049854;28;20099;-74
2022/08/19 01:41:42;;;;;;;4.18;2.85;;;14.00;99.90;;;;;;5049306;28;20400;-74
2022/08/19 01:44:09;;;;;;;6.43;3.13;;;14.00;99.90;;;;;;5031586;28;20057;-73
2022/08/19 01:46:35;;;;;;;5.70;4.50;;;13.90;99.90;;;;;;5050510;28;20045;-74
2022/08/19 01:49:03;;;;;;;7.13;4.97;;;14.00;99.90;;;;;;5049486;28;20107;-74
2022/08/19 01:51:30;;;;;;;8.05;5.53;;;13.90;99.90;;;;;;5035100;28;20061;-73
2022/08/19 01:53:56;;;;;;;6.90;5.00;;;13.90;99.90;;;;;;5034919;28;20033;-74
2022/08/19 01:56:23;;;;;;;8.57;6.20;;;13.90;99.90;;;;;;5035509;28;20504;-73
2022/08/19 01:59:02;;;;;;;7.85;5.88;;;14.20;99.90;;;;;;5052679;28;20045;-75
2022/08/19 02:01:31;;;;;;;9.15;6.35;;;13.90;99.90;;;;;;5060418;28;20124;-75
2022/08/19 02:03:58;;;;;;;9.13;7.05;;;13.90;99.90;;;;;;5078856;28;20052;-74
2022/08/19 02:06:23;;;;;;;8.88;6.53;;;13.90;99.90;;;;;;5092760;28;20135;-72
2022/08/19 02:08:49;;;;;;;8.50;6.28;;;13.90;99.90;;;;;;5055069;28;20127;-73
2022/08/19 02:11:33;;;;;;;7.53;5.82;;;13.90;99.90;;;;;;5072941;28;20382;-73
2022/08/19 02:14:01;;;;;;;7.75;6.13;;;13.90;99.90;;;;;;5077333;28;20070;-77
2022/08/19 02:16:27;;;;;;;8.98;6.20;;;14.00;99.90;;;;;;5054533;28;20131;-75
2022/08/19 02:18:54;;;;;;;8.13;5.68;;;13.80;99.90;;;;;;5067362;28;20420;-75
2022/08/19 02:21:22;;;;;;;5.35;4.63;;;13.80;99.90;;;;;;5072184;28;20045;-75
2022/08/19 02:23:49;;;;;;;5.13;4.43;;;13.80;99.90;;;;;;5054226;28;20056;-75
2022/08/19 02:26:18;;;;;;;5.25;4.10;;;13.80;99.90;;;;;;5072115;28;20188;-75
2022/08/19 02:28:44;;;;;;;5.22;4.10;;;13.80;99.90;;;;;;5066487;28;20125;-75
2022/08/19 02:31:12;;;;;;;6.25;4.03;;;13.70;99.90;;;;;;5053392;28;20128;-75
2022/08/19 02:33:38;;;;;;;4.25;3.60;;;13.70;99.90;;;;;;5090937;28;20052;-74
2022/08/19 02:36:06;;;;;;;5.00;3.13;;;13.70;99.90;;;;;;5087143;28;20055;-75
2022/08/19 02:38:32;;;;;;;5.43;4.00;;;13.60;99.90;;;;;;5091441;28;20047;-74
2022/08/19 02:41:13;;;;;;;9.00;4.63;;;13.50;99.90;;;;;;5069990;28;20110;-74
2022/08/19 02:43:40;;;;;;;6.15;4.05;;;13.60;99.90;;;;;;5053739;28;20052;-74
2022/08/19 02:46:27;;;;;;;7.28;4.28;;;13.60;99.90;;;;;;5071785;28;20549;-75
2022/08/19 02:48:56;;;;;;;6.30;4.25;;;13.50;99.90;;;;;;5071764;28;20127;-75
2022/08/19 02:51:24;;;;;;;12.57;4.90;;;13.50;99.90;;;;;;5053929;28;20099;-74
2022/08/19 02:53:51;;;;;;;6.55;3.97;;;13.60;99.90;;;;;;5060937;28;20039;-73
2022/08/19 02:56:17;;;;;;;6.55;4.20;;;13.50;99.90;;;;;;5080634;28;20059;-74
2022/08/19 02:58:43;;;;;;;6.18;3.90;;;13.50;99.90;;;;;;5091413;28;20040;-74
2022/08/19 03:01:10;;;;;;;6.53;4.35;;;13.50;99.90;;;;;;5056171;28;20052;-75
2022/08/19 03:03:37;;;;;;;5.53;3.67;;;13.60;99.90;;;;;;5087513;28;20487;-74
2022/08/19 03:06:12;;;;;;;5.80;3.60;;;13.50;99.90;;;;;;5089391;28;20040;-74
2022/08/19 03:08:39;;;;;;;5.70;3.85;;;13.40;99.90;;;;;;5072282;28;20141;-75
2022/08/19 03:11:06;;;;;;;6.53;4.78;;;13.40;99.90;;;;;;5067923;28;20041;-75
2022/08/19 03:13:32;;;;;;;7.45;4.82;;;13.60;99.90;;;;;;5044332;28;20045;-76
2022/08/19 03:15:58;;;;;;;9.60;6.38;;;13.40;99.90;;;;;;5061121;28;20052;-74
2022/08/19 03:18:23;;;;;;;7.07;5.07;;;13.50;99.90;;;;;;5054416;28;20085;-74
2022/08/19 03:20:54;;;;;;;5.60;4.47;;;13.40;99.90;;;;;;5071024;28;20551;-72
2022/08/19 03:23:20;;;;;;;5.18;4.63;;;13.40;99.90;;;;;;5072000;28;20051;-74
2022/08/19 03:25:50;;;;;;;7.95;5.30;;;13.50;99.90;;;;;;5036869;28;20041;-74
2022/08/19 03:28:16;;;;;;;10.75;7.70;;;13.40;99.90;;;;;;5050998;28;20500;-75
2022/08/19 03:30:55;;;;;;;10.73;7.18;;;13.40;99.90;;;;;;5069935;28;20048;-75
2022/08/19 03:33:21;;;;;;;11.32;7.35;;;13.60;99.90;;;;;;5051158;28;20088;-76
2022/08/19 03:35:47;;;;;;;9.82;7.30;;;13.50;99.90;;;;;;5069313;28;20076;-75
2022/08/19 03:38:12;;;;;;;7.95;6.60;;;13.60;99.90;;;;;;5079132;28;20048;-75
2022/08/19 03:40:38;;;;;;;9.52;6.05;;;13.50;99.90;;;;;;5042096;28;20053;-75
2022/08/19 03:43:04;;;;;;;8.82;4.95;;;13.70;99.90;;;;;;5052096;28;20728;-75
2022/08/19 03:45:29;;;;;;;6.25;4.93;;;13.40;99.90;;;;;;5050391;28;20045;-75
2022/08/19 03:47:55;;;;;;;8.98;5.47;;;13.40;99.90;;;;;;5050856;28;20045;-75
2022/08/19 03:50:21;;;;;;;8.27;4.18;;;13.30;99.90;;;;;;5033205;28;20144;-75
2022/08/19 03:52:52;;;;;;;5.63;4.07;;;13.50;99.90;;;;;;5051772;28;20119;-74
2022/08/19 03:55:18;;;;;;;5.78;3.85;;;13.30;99.90;;;;;;5032733;28;20456;-74
2022/08/19 03:57:45;;;;;;;5.35;4.10;;;13.30;99.90;;;;;;5050508;28;20455;-76
2022/08/19 04:00:12;;;;;;;4.65;3.70;;;13.50;99.90;;;;;;5050106;28;20052;-75
2022/08/19 04:02:37;;;;;;;5.90;4.13;;;13.30;99.90;;;;;;5066987;28;20094;-74
2022/08/19 04:05:03;;;;;;;7.93;4.13;;;13.30;99.90;;;;;;5068707;28;20048;-75
2022/08/19 04:07:29;;;;;;;5.80;4.60;;;13.30;99.90;;;;;;5051680;28;20056;-75
2022/08/19 04:09:55;;;;;;;5.20;3.92;;;13.30;99.90;;;;;;5069698;28;20047;-75
2022/08/19 04:12:20;;;;;;;6.93;3.45;;;13.40;99.90;;;;;;5051586;28;20063;-75
2022/08/19 04:14:46;;;;;;;5.15;3.85;;;13.40;99.90;;;;;;5068357;28;20516;-75
2022/08/19 04:17:13;;;;;;;7.50;5.00;;;13.30;99.90;;;;;;5069862;28;20135;-75
2022/08/19 04:19:40;;;;;;;8.05;6.35;;;13.30;99.90;;;;;;5070245;28;20057;-74
2022/08/19 04:22:06;;;;;;;10.88;6.28;;;13.30;99.90;;;;;;5066118;28;20058;-74
2022/08/19 04:24:34;;;;;;;9.15;7.13;;;13.40;99.90;;;;;;5065596;28;20141;-73
2022/08/19 04:27:02;;;;;;;10.25;7.20;;;13.40;99.90;;;;;;5050046;28;20052;-74
2022/08/19 04:29:29;;;;;;;12.15;7.72;;;13.40;99.90;;;;;;5049941;28;20071;-74
2022/08/19 04:31:56;;;;;;;10.93;7.53;;;13.40;99.90;;;;;;5049937;28;20532;-74
2022/08/19 04:34:25;;;;;;;8.57;6.45;;;13.40;99.90;;;;;;5050275;28;20049;-74
2022/08/19 04:36:53;;;;;;;8.95;5.32;;;13.40;99.90;;;;;;5049154;28;20104;-74
2022/08/19 04:39:21;;;;;;;5.78;4.40;;;13.40;99.90;;;;;;5071176;28;20086;-74
2022/08/19 04:44:34;;;;;;;7.70;6.13;;;13.50;99.90;;;;;;5051288;28;20072;-74
2022/08/19 04:47:01;;;;;;;10.43;6.97;;;13.50;99.90;;;;;;5062267;28;20773;-74
2022/08/19 04:49:26;;;;;;;11.68;7.78;;;13.60;99.90;;;;;;5060651;28;20056;-74
2022/08/19 04:51:54;;;;;;;10.65;7.78;;;13.50;99.90;;;;;;5070946;28;20055;-74
2022/08/19 04:54:22;;;;;;;9.80;7.70;;;13.50;99.90;;;;;;5069772;28;20048;-74
2022/08/19 04:56:49;;;;;;;12.82;7.97;;;13.60;99.90;;;;;;5051451;28;20094;-73
2022/08/19 04:59:16;;;;;;;12.48;8.35;;;13.60;99.90;;;;;;5051387;28;20052;-75
2022/08/19 05:01:43;;;;;;;11.98;8.20;;;13.90;99.90;;;;;;5053357;28;20059;-74
2022/08/19 05:04:09;;;;;;;11.20;8.23;;;13.70;99.90;;;;;;5050378;28;20067;-74
2022/08/19 05:06:36;;;;;;;15.73;9.73;;;13.70;99.90;;;;;;5037708;28;20051;-75
2022/08/19 05:09:04;;;;;;;12.60;8.00;;;13.70;99.90;;;;;;5085116;28;20040;-74
2022/08/19 05:11:38;;;;;;;7.38;6.55;;;13.70;99.90;;;;;;5072442;28;20052;-74
2022/08/19 05:14:05;;;;;;;8.70;6.57;;;13.80;99.90;;;;;;5049772;28;20124;-74
2022/08/19 05:16:31;;;;;;;7.65;5.95;;;13.80;99.90;;;;;;5049829;28;20095;-73
2022/08/19 05:24:29;;;;;;;7.18;5.07;;;13.90;99.90;;;;;;5052401;28;20057;-74
2022/08/19 05:26:58;;;;;;;7.40;5.30;;;13.80;99.90;;;;;;5035578;28;20067;-74
2022/08/19 05:29:26;;;;;;;8.15;5.90;;;14.10;99.90;;;;;;5054394;28;20045;-74
2022/08/19 05:31:53;;;;;;;11.40;8.63;;;14.00;99.90;;;;;;5053381;28;20041;-74
2022/08/19 05:34:25;;;;;;;13.10;9.55;;;13.90;99.90;;;;;;5034861;28;20056;-74
2022/08/19 05:36:56;;;;;;;14.18;9.25;;;14.10;99.90;;;;;;5059441;28;20032;-74
2022/08/19 05:39:27;;;;;;;14.90;9.52;;;14.20;99.90;;;;;;5071258;28;20048;-74
2022/08/19 05:41:56;;;;;;;12.50;9.23;;;14.30;99.90;;;;;;5035185;28;20381;-75
2022/08/19 05:44:31;;;;;;;22.05;9.73;;;14.30;99.90;;;;;;5053099;28;20044;-74
2022/08/19 05:46:58;;;;;;;14.50;10.50;;;14.40;99.90;;;;;;5053011;28;20057;-73
2022/08/19 05:49:25;;;;;;;13.90;9.73;;;14.50;99.90;;;;;;5034935;28;20060;-74
2022/08/19 05:51:51;;;;;;;13.88;9.48;;;14.50;99.90;;;;;;5053837;28;20123;-74
2022/08/19 05:54:18;;;;;;;13.80;9.40;;;14.60;99.90;;;;;;5052852;28;20075;-74
2022/08/19 05:56:47;;;;;;;15.27;10.57;;;14.80;99.90;;;;;;5034812;28;20094;-74
2022/08/19 05:59:13;;;;;;;14.50;10.10;;;14.80;99.90;;;;;;5052763;28;20069;-74
2022/08/19 06:01:41;;;;;;;13.63;10.68;;;15.00;99.90;;;;;;5053642;28;20150;-73
2022/08/19 06:04:07;;;;;;;15.07;11.57;;;15.30;99.90;;;;;;5052862;28;20129;-75
2022/08/19 06:06:34;;;;;;;13.90;10.90;;;15.10;99.90;;;;;;5052538;28;20115;-74
2022/08/19 06:09:01;;;;;;;15.90;12.30;;;15.20;99.90;;;;;;5052757;28;20110;-74
2022/08/19 06:11:38;;;;;;;21.40;13.25;;;15.30;99.90;;;;;;5046363;28;20036;-74
2022/08/19 06:14:08;;;;;;;19.92;12.85;;;15.40;99.90;;;;;;5072736;28;20519;-74
2022/08/19 06:16:39;;;;;;;15.85;11.63;;;15.60;99.90;;;;;;5072333;28;20085;-74
2022/08/19 06:19:11;;;;;;;19.48;13.63;;;15.90;99.90;;;;;;5054725;28;20060;-74
2022/08/19 06:21:39;;;;;;;22.95;15.05;;;15.90;99.90;;;;;;5071686;28;20093;-74
2022/08/19 06:24:07;;;;;;;18.27;13.95;;;16.10;99.90;;;;;;5072745;28;20041;-75
2022/08/19 06:26:35;;;;;;;20.75;14.45;;;16.10;99.90;;;;;;5070719;28;20118;-74
2022/08/19 06:29:01;;;;;;;22.40;15.75;;;16.20;99.90;;;;;;5072274;28;20135;-76
2022/08/19 06:31:29;;;;;;;23.70;14.90;;;16.30;99.90;;;;;;5068217;28;20040;-75
2022/08/19 06:33:54;;;;;;;22.67;14.30;;;16.40;99.90;;;;;;5073735;28;20087;-73
2022/08/19 06:36:35;;;;;;;21.08;14.27;;;16.60;99.90;;;;;;5067253;28;20084;-74
2022/08/19 06:39:05;;;;;;;18.55;12.95;;;16.70;99.90;;;;;;5045108;28;20068;-75
2022/08/19 06:41:35;;;;;;;21.67;14.55;;;16.70;99.90;;;;;;5051945;28;20508;-74
2022/08/19 06:44:00;;;;;;;22.63;13.30;;;16.80;99.90;;;;;;5034052;28;20052;-75
2022/08/19 06:46:27;;;;;;;20.52;13.57;;;16.90;99.90;;;;;;5051976;28;20102;-75
2022/08/19 06:48:54;;;;;;;22.17;13.32;;;17.00;99.90;;;;;;5052879;28;20045;-74
2022/08/19 06:51:21;;;;;;;18.52;12.95;;;17.20;99.90;;;;;;5033667;28;20135;-73
2022/08/19 06:53:48;;;;;;;17.73;13.32;;;17.20;99.90;;;;;;5051593;28;20056;-76
2022/08/19 06:56:16;;;;;;;20.25;13.07;;;17.40;99.90;;;;;;5033974;28;20182;-75
2022/08/19 06:58:42;;;;;;;22.13;12.82;;;17.50;99.90;;;;;;5034832;28;20052;-75
2022/08/19 07:01:08;;;;;;;24.42;12.98;;;17.70;99.90;;;;;;5051948;28;20041;-73
2022/08/19 07:03:35;;;;;;;19.75;13.68;;;17.80;99.90;;;;;;5051744;28;20070;-75
2022/08/19 07:06:07;;;;;;;21.90;14.30;;;17.90;99.90;;;;;;5033789;28;20052;-76
2022/08/19 07:08:35;;;;;;;17.42;12.88;;;18.00;99.90;;;;;;5051183;28;20044;-74
2022/08/19 07:11:00;;;;;;;18.27;13.38;;;18.10;99.90;;;;;;5070571;28;20399;-74
2022/08/19 07:13:26;;;;;;;22.50;12.90;;;18.30;99.90;;;;;;5053136;28;20043;-75
2022/08/19 07:15:52;;;;;;;16.70;12.52;;;18.40;99.90;;;;;;5071664;28;20048;-74
2022/08/19 07:18:20;;;;;;;20.08;13.10;;;18.50;99.90;;;;;;5061582;28;20502;-76
2022/08/19 07:20:46;;;;;;;15.95;11.85;;;18.70;99.90;;;;;;5070277;28;20150;-79
2022/08/19 07:23:12;;;;;;;18.15;12.95;;;18.60;99.90;;;;;;5034117;28;20496;-75
2022/08/19 07:25:38;;;;;;;17.98;13.52;;;18.80;99.90;;;;;;5051416;28;20114;-80
2022/08/19 07:28:04;;;;;;;15.38;12.35;;;18.90;99.90;;;;;;5051369;28;20540;-81
2022/08/19 07:30:30;;;;;;;14.45;12.45;;;19.00;99.90;;;;;;5034863;28;20273;-80
2022/08/19 07:32:56;;;;;;;16.30;11.48;;;19.20;99.90;;;;;;5051261;28;20044;-79
2022/08/19 07:35:23;;;;;;;16.30;12.93;;;19.30;99.90;;;;;;5050450;28;20530;-75
2022/08/19 07:37:49;;;;;;;17.77;13.23;;;19.40;99.90;;;;;;5033310;28;20520;-74
2022/08/19 07:40:15;;;;;;;17.98;12.30;;;19.50;99.90;;;;;;5055869;28;20057;-79
2022/08/19 07:42:42;;;;;;;17.00;12.50;;;19.60;99.90;;;;;;5060691;28;20135;-73
2022/08/19 07:45:08;;;;;;;16.38;11.25;;;19.70;99.90;;;;;;5051336;28;20053;-76
2022/08/19 07:47:34;;;;;;;18.52;11.98;;;19.80;99.90;;;;;;5033098;28;20052;-76
2022/08/19 07:50:04;;;;;;;14.75;11.63;;;20.00;99.90;;;;;;5051552;28;20083;-76
2022/08/19 07:52:30;;;;;;;15.23;11.27;;;20.10;99.90;;;;;;5051837;28;20099;-75
2022/08/19 07:54:55;;;;;;;14.73;10.38;;;20.20;99.90;;;;;;5062383;28;20045;-77
2022/08/19 07:57:21;;;;;;;15.77;10.25;;;20.50;99.90;;;;;;5073603;28;20045;-77
2022/08/19 07:59:46;;;;;;;12.68;9.68;;;20.60;99.90;;;;;;5066849;28;20107;-76
2022/08/19 08:02:12;;;;;;;13.82;10.02;;;20.80;99.90;;;;;;5052473;28;20090;-77
2022/08/19 08:10:07;;;;;;;12.25;10.90;;;21.30;99.90;;;;;;5054712;28;20095;-75
2022/08/19 08:12:38;;;;;;;13.50;10.32;;;21.60;99.90;;;;;;5038470;28;20224;-75
2022/08/19 08:15:14;;;;;;;14.70;11.20;;;21.80;99.90;;;;;;5050380;28;20783;-75
2022/08/19 08:17:40;;;;;;;16.58;10.07;;;22.00;99.90;;;;;;5062530;28;20040;-77
2022/08/19 08:20:06;;;;;;;12.65;10.50;;;22.20;99.90;;;;;;5070320;28;20407;-81
2022/08/19 08:25:20;;;;;;;;;;;22.60;99.90;;;;;;5070677;28;20053;-74
2022/08/19 08:27:46;;;;;;;12.68;10.65;;;22.90;99.90;;;;;;5069802;28;19932;-75
2022/08/19 08:30:19;;;;;;;15.23;10.30;;;23.00;99.90;;;;;;5070239;28;20418;-77
2022/08/19 08:32:45;;;;;;;12.75;9.82;;;23.30;99.90;;;;;;5052130;28;20140;-76
2022/08/19 08:35:16;;;;;;;14.20;10.20;;;23.40;99.90;;;;;;5070011;28;20053;-76
2022/08/19 08:37:43;;;;;;;14.70;10.35;;;23.70;99.90;;;;;;5070419;28;20107;-74
2022/08/19 08:40:28;;;;;;;15.32;10.48;;;23.70;99.90;;;;;;5070429;28;20471;-77
2022/08/19 08:43:11;;;;;;;14.45;10.90;;;23.80;99.90;;;;;;5051886;28;20044;-75
2022/08/19 08:45:46;;;;;;;12.48;9.55;;;24.00;99.90;;;;;;5069934;28;20441;-75
2022/08/19 08:48:24;;;;;;;14.07;11.10;;;24.10;99.90;;;;;;5052122;28;20064;-75
2022/08/19 08:50:54;;;;;;;14.13;10.73;;;24.30;99.90;;;;;;5052000;28;20048;-74
2022/08/19 08:53:20;;;;;;;13.15;10.70;;;24.40;99.90;;;;;;5070002;28;20083;-76
2022/08/19 08:55:47;;;;;;;11.25;9.55;;;24.50;99.90;;;;;;5052019;28;20064;-79
2022/08/19 08:58:44;;;;;;;12.18;10.52;;;24.70;99.90;;;;;;5068779;28;20075;-75
2022/08/19 09:01:11;;;;;;;13.23;11.13;;;24.90;99.90;;;;;;5051975;28;20127;-77
2022/08/19 09:03:42;;;;;;;15.20;10.68;;;25.00;99.90;;;;;;5070115;28;20124;-74
2022/08/19 09:06:18;;;;;;;13.23;11.82;;;25.30;99.90;;;;;;5057474;28;20049;-75
2022/08/19 09:08:57;;;;;;;12.45;10.82;;;25.40;99.90;;;;;;5082878;28;20045;-77
2022/08/19 09:11:36;;;;;;;15.88;11.25;;;25.50;99.90;;;;;;5075411;28;20438;-76
2022/08/19 09:14:31;;;;;;;13.68;11.75;;;25.70;99.90;;;;;;5071215;28;20049;-75
2022/08/19 09:16:59;;;;;;;13.50;10.63;;;25.70;99.90;;;;;;5052248;28;20082;-75
2022/08/19 09:19:25;;;;;;;13.23;10.85;;;25.80;99.90;;;;;;5069469;28;20810;-77
2022/08/19 09:21:50;;;;;;;12.85;10.23;;;25.80;99.90;;;;;;5069504;28;20087;-77
2022/08/19 09:24:16;;;;;;;11.25;8.88;;;26.10;99.90;;;;;;5069677;28;20044;-76
2022/08/19 09:26:43;;;;;;;11.63;9.88;;;26.10;99.90;;;;;;5069608;28;20068;-76
2022/08/19 09:29:10;;;;;;;11.45;9.18;;;26.20;99.90;;;;;;5069715;28;20059;-75
2022/08/19 09:31:36;;;;;;;13.73;10.43;;;26.20;99.90;;;;;;5051571;28;20067;-76
2022/08/19 09:34:04;;;;;;;10.80;9.70;;;26.40;99.90;;;;;;5069479;28;20045;-77
2022/08/19 09:36:33;;;;;;;11.15;9.68;;;26.50;99.90;;;;;;5051512;28;20049;-76
2022/08/19 09:39:00;;;;;;;13.18;9.88;;;26.60;99.90;;;;;;5069275;28;20046;-76
2022/08/19 09:41:26;;;;;;;10.85;8.93;;;26.70;99.90;;;;;;5069675;28;20433;-75
2022/08/19 09:43:55;;;;;;;12.73;10.18;;;26.90;99.90;;;;;;5069665;28;20048;-76
2022/08/19 09:46:23;;;;;;;12.00;9.30;;;26.90;99.90;;;;;;5069192;28;20131;-76
2022/08/19 09:48:51;;;;;;;12.20;9.82;;;26.90;99.90;;;;;;5051143;28;20098;-76
2022/08/19 09:51:20;;;;;;;11.55;10.25;;;27.10;99.90;;;;;;5069462;28;20040;-77
2022/08/19 09:53:49;;;;;;;13.18;9.95;;;27.20;99.90;;;;;;5069308;28;20072;-76
2022/08/19 09:56:18;;;;;;;11.55;9.40;;;27.30;99.90;;;;;;5051242;28;20059;-77
2022/08/19 09:58:44;;;;;;;11.80;10.60;;;27.40;99.90;;;;;;5069200;28;20098;-76
2022/08/19 10:01:25;;;;;;;10.98;9.30;;;27.50;99.90;;;;;;5068876;28;20116;-77
2022/08/19 10:03:54;;;;;;;10.48;9.38;;;27.50;99.90;;;;;;5069171;28;20048;-77
2022/08/19 10:06:22;;;;;;;14.15;10.10;;;27.60;99.90;;;;;;5069072;28;20088;-78
2022/08/19 10:08:49;;;;;;;13.02;10.23;;;27.70;99.90;;;;;;5069345;28;20436;-75
2022/08/19 10:11:16;;;;;;;12.35;11.05;;;27.60;99.90;;;;;;5053240;28;20135;-79
2022/08/19 10:13:43;;;;;;;15.20;11.60;;;27.60;99.90;;;;;;5054754;28;20082;-77
2022/08/19 10:16:13;;;;;;;14.00;10.57;;;27.80;99.90;;;;;;5072538;28;20417;-77
2022/08/19 10:18:42;;;;;;;15.45;13.30;;;27.80;99.90;;;;;;5072488;28;20051;-76
2022/08/19 10:21:15;;;;;;;15.43;11.40;;;27.60;99.90;;;;;;5072527;28;20056;-77
2022/08/19 10:23:44;;;;;;;14.48;11.27;;;27.70;99.90;;;;;;5072661;28;20048;-77
2022/08/19 10:26:15;;;;;;;13.70;12.30;;;27.80;99.90;;;;;;5072663;28;20121;-76
2022/08/19 10:28:41;;;;;;;15.43;11.63;;;27.90;99.90;;;;;;5054387;28;20495;-77
2022/08/19 10:31:17;;;;;;;13.55;11.10;;;28.00;99.90;;;;;;5054091;28;20045;-77
2022/08/19 10:33:43;;;;;;;13.52;11.82;;;28.10;99.90;;;;;;5072272;28;20131;-75
2022/08/19 10:36:18;;;;;;;12.93;11.20;;;28.10;99.90;;;;;;5072433;28;20040;-77
2022/08/19 10:38:46;;;;;;;13.57;11.65;;;28.20;99.90;;;;;;5072084;28;20566;-77
2022/08/19 10:41:15;;;;;;;29.77;12.27;;;28.20;99.90;;;;;;5054363;28;20052;-76
2022/08/19 10:43:41;;;;;;;14.07;12.48;;;28.10;99.90;;;;;;5054753;28;20513;-75
2022/08/19 10:46:10;;;;;;;12.93;11.07;;;27.90;99.90;;;;;;5054342;28;20044;-79
2022/08/19 10:48:36;;;;;;;14.00;12.38;;;27.80;99.90;;;;;;5053435;28;20182;-80
2022/08/19 10:53:48;;;;;;;15.23;13.63;;;27.90;99.90;;;;;;5081087;28;20092;-79
2022/08/19 10:58:59;;;;;;;14.40;12.32;;;28.20;99.90;;;;;;5091223;28;20062;-77
2022/08/19 11:01:29;;;;;;;14.07;11.88;;;28.40;99.90;;;;;;5051897;28;20128;-81
2022/08/19 11:03:57;;;;;;;18.98;12.23;;;28.70;99.90;;;;;;5069650;28;20422;-76
2022/08/19 11:06:24;;;;;;;13.30;11.57;;;28.80;99.90;;;;;;5071719;28;20046;-78
2022/08/19 11:08:51;;;;;;;12.88;11.23;;;28.60;99.90;;;;;;5071815;28;20124;-78
2022/08/19 11:11:17;;;;;;;11.32;10.10;;;28.40;99.90;;;;;;5053899;28;20071;-79
2022/08/19 11:13:44;;;;;;;15.65;9.93;;;28.30;99.90;;;;;;5053628;28;20041;-80
2022/08/19 11:16:15;;;;;;;14.88;9.57;;;28.10;99.90;;;;;;5069277;28;20052;-78
2022/08/19 11:18:47;;;;;;;11.82;8.57;;;28.00;99.90;;;;;;5053079;28;20131;-76
2022/08/19 11:21:20;;;;;;;11.50;7.82;;;28.20;99.90;;;;;;5052429;28;20098;-78
2022/08/19 11:23:50;;;;;;;13.15;6.75;;;28.40;99.90;;;;;;5069835;28;20523;-77
2022/08/19 11:26:16;;;;;;;12.45;8.55;;;28.50;99.90;;;;;;5051708;28;20094;-76
2022/08/19 11:28:42;;;;;;;12.25;7.90;;;28.60;99.90;;;;;;5051498;28;20064;-76
2022/08/19 11:31:13;;;;;;;13.80;11.50;;;28.70;99.90;;;;;;5051336;28;20057;-74
2022/08/19 11:33:40;;;;;;;12.52;9.70;;;28.40;99.90;;;;;;5058298;28;20040;-75
2022/08/19 11:36:07;;;;;;;9.50;6.60;;;28.30;99.90;;;;;;5050282;28;20062;-78
2022/08/19 11:38:35;;;;;;;9.38;6.95;;;28.20;99.90;;;;;;5072937;28;20052;-76
2022/08/19 11:41:04;;;;;;;10.00;8.07;;;28.10;99.90;;;;;;5091340;28;20048;-76
2022/08/19 11:43:30;;;;;;;11.60;7.15;;;28.00;99.90;;;;;;5090991;28;20495;-76
2022/08/19 11:45:56;;;;;;;9.23;5.90;;;27.80;99.90;;;;;;5091063;28;20044;-77
2022/08/19 11:48:23;;;;;;;11.07;8.18;;;27.70;99.90;;;;;;5091005;28;20048;-75
2022/08/19 11:50:55;;;;;;;9.75;7.05;;;27.40;99.90;;;;;;5090989;28;20052;-74
2022/08/19 11:53:20;;;;;;;7.80;6.53;;;27.20;99.90;;;;;;5091257;28;20040;-74
2022/08/19 11:55:47;;;;;;;10.10;6.38;;;27.10;99.90;;;;;;5092456;28;20392;-76
2022/08/19 11:58:15;;;;;;;7.90;6.00;;;27.00;99.90;;;;;;5102914;28;20092;-76
2022/08/19 12:00:41;;;;;;;12.15;7.13;;;27.00;99.90;;;;;;5101131;28;20059;-76
2022/08/19 12:03:07;;;;;;;12.32;7.43;;;27.00;99.90;;;;;;5061216;28;20059;-75
2022/08/19 12:05:33;;;;;;;13.40;6.93;;;26.90;99.90;;;;;;5088509;28;20040;-77
2022/08/19 12:07:59;;;;;;;9.85;7.75;;;26.90;99.90;;;;;;5069840;28;20067;-75
2022/08/19 12:10:25;;;;;;;9.68;7.85;;;27.10;99.90;;;;;;5052504;28;20132;-74
2022/08/19 12:12:50;;;;;;;10.63;7.55;;;27.30;99.90;;;;;;5062813;28;20041;-76
2022/08/19 12:15:16;;;;;;;10.85;8.15;;;27.50;99.90;;;;;;5032609;28;20048;-76
2022/08/19 12:17:42;;;;;;;14.00;9.25;;;27.40;99.90;;;;;;5032450;28;20045;-77
2022/08/19 12:20:11;;;;;;;12.13;6.90;;;27.20;99.90;;;;;;5032160;28;20048;-77
2022/08/19 12:22:37;;;;;;;10.00;7.10;;;27.20;99.90;;;;;;5032758;28;20512;-78
2022/08/19 12:25:04;;;;;;;8.98;6.72;;;27.10;99.90;;;;;;5050410;28;20099;-77
2022/08/19 12:27:30;;;;;;;13.45;8.75;;;27.10;99.90;;;;;;5050115;28;20045;-77
2022/08/19 12:29:56;;;;;;;10.52;8.52;;;26.90;99.90;;;;;;5032189;28;20680;-75
2022/08/19 12:32:24;;;;;;;14.15;8.25;;;27.00;99.90;;;;;;5031928;28;20080;-76
2022/08/19 12:34:50;;;;;;;11.50;8.52;;;26.90;99.90;;;;;;5050523;28;20131;-77
2022/08/19 12:37:16;;;;;;;10.40;7.22;;;26.80;99.90;;;;;;5031905;28;20144;-78
2022/08/19 12:39:42;;;;;;;10.73;7.15;;;26.80;99.90;;;;;;5050005;28;20067;-76
2022/08/19 12:42:12;;;;;;;11.50;7.65;;;26.70;99.90;;;;;;5049849;28;20045;-78
2022/08/19 12:44:39;;;;;;;10.88;7.18;;;26.70;99.90;;;;;;5050970;28;20449;-76
2022/08/19 12:47:06;;;;;;;9.48;7.20;;;26.60;99.90;;;;;;5060928;28;20051;-76
2022/08/19 12:49:33;;;;;;;13.52;8.65;;;26.60;99.90;;;;;;5089911;28;20484;-76
2022/08/19 12:52:04;;;;;;;11.77;8.60;;;26.50;99.90;;;;;;5071705;28;20062;-77
2022/08/19 12:54:30;;;;;;;16.90;10.70;;;26.40;99.90;;;;;;5071211;28;20051;-76
2022/08/19 12:56:57;;;;;;;14.10;10.70;;;26.40;99.90;;;;;;5052946;28;20091;-77
2022/08/19 12:59:22;;;;;;;19.70;10.77;;;26.20;99.90;;;;;;5049555;28;20128;-76
2022/08/19 13:01:48;;;;;;;18.40;12.48;;;26.20;99.90;;;;;;5049658;28;20132;-78
2022/08/19 13:04:15;;;;;;;21.23;13.98;;;26.10;99.90;;;;;;5032174;28;20045;-75